Latest Coastal Weather Observations for Gladstone

IDQ60701

Issued at 12:01 pm EST Friday 27 March 2015 (issued every 10 minutes, with the page automatically refreshed every 10 minutes)

About coastal observations | Map of coastal stations | Coastal observations for QLD | Marine services | Other Formats
Station Details ID: 039123 Name: GLADSTONE RADAR Lat: -23.86 Lon: 151.26 Height: 74.5 m
Data from the previous 72 hours. | See also: Recent months at Gladstone
Date/Time
EST
Temp

°C
Wind Pressure Rain
since 9am
mm
Weather Cloud Vis
km
Sea
Height
m
Swell
Dir
 
Speed
knots
Gust
knots
hPa Trend Height
m
Period
s
Dir
27/12:00pm 32.8 NE 6 10 1017.4 - 0.0 - - - - - - -
27/11:30am 32.2 NE 7 11 1018.0 - 0.0 - - - - - - -
27/11:00am 31.8 ENE 7 11 1018.4 - 0.0 - - - - - - -
27/10:30am 31.8 ENE 6 10 1018.8 - 0.0 - - - - - - -
27/10:00am 31.4 NE 6 9 1019.0 - 0.0 - - - - - - -
27/09:30am 30.8 ENE 6 9 1019.1 - 0.0 - - - - - - -
27/09:00am 29.7 ENE 6 8 1018.9 - 0.0 - - - - - - -
27/08:30am 29.5 NE 3 7 1018.9 - 0.0 - - - - - - -
27/08:00am 27.7 E 4 6 1018.8 - 0.0 - - - - - - -
27/07:30am 26.2 SSE 1 3 1018.7 - 0.0 - - - - - - -
27/07:00am 25.4 CALM 0 3 1018.4 - 0.0 - - - - - - -
27/06:30am 24.9 SSE 3 4 1018.1 - 0.0 - - - - - - -
27/06:00am 24.2 SW 3 4 1017.8 - 0.0 - - - - - - -
27/05:30am 24.4 SSW 2 4 1017.4 - 0.0 - - - - - - -
27/05:00am 24.5 SW 4 5 1017.2 - 0.0 - - - - - - -
27/04:30am 24.5 NE 3 6 1016.9 - 0.0 - - - - - - -
27/04:00am 24.9 NNE 5 8 1016.6 - 0.0 - - - - - - -
27/03:30am 25.3 NE 5 6 1016.6 - 0.0 - - - - - - -
27/03:00am 25.2 NE 5 7 1016.6 - 0.0 - - - - - - -
27/02:30am 25.0 NE 5 8 1016.7 - 0.0 - - - - - - -
27/02:00am 25.1 NE 5 8 1016.9 - 0.0 - - - - - - -
27/01:30am 25.1 ENE 7 9 1017.0 - 0.0 - - - - - - -
27/01:00am 25.1 ENE 6 9 1017.2 - 0.0 - - - - - - -
27/12:30am 25.1 NE 5 8 1017.6 - 0.0 - - - - - - -
27/12:00am 25.2 NE 5 7 1017.8 - 0.0 - - - - - - -
 
Date/Time
EST
Temp

°C
Wind Pressure Rain
since 9am
mm
Weather Cloud Vis
km
Sea
Height
m
Swell
Dir
 
Speed
knots
Gust
knots
hPa Trend Height
m
Period
s
Dir
26/11:30pm 25.3 ENE 6 9 1017.9 - 0.0 - - - - - - -
26/11:00pm 25.4 NE 6 9 1018.0 - 0.0 - - - - - - -
26/10:30pm 25.4 ENE 6 9 1018.0 - 0.0 - - - - - - -
26/10:00pm 25.6 ENE 5 8 1018.2 - 0.0 - - - - - - -
26/09:30pm 25.5 ENE 6 8 1018.3 - 0.0 - - - - - - -
26/09:00pm 25.5 ENE 6 9 1018.2 - 0.0 - - - - - - -
26/08:30pm 25.6 ENE 6 9 1017.9 - 0.0 - - - - - - -
26/08:00pm 25.8 NE 5 9 1017.4 - 0.0 - - - - - - -
26/07:30pm 25.9 NE 6 9 1017.0 - 0.0 - - - - - - -
26/07:00pm 26.0 NE 7 11 1016.6 - 0.0 - - - - - - -
26/06:30pm 26.2 NE 7 12 1016.3 - 0.0 - - - - - - -
26/06:00pm 26.6 NE 7 11 1016.0 - 0.0 - - - - - - -
26/05:30pm 27.2 ENE 7 10 1015.7 - 0.0 - - - - - - -
26/05:00pm 27.7 NE 7 10 1015.6 - 0.0 - - - - - - -
26/04:30pm 28.6 NE 7 10 1015.4 - 0.0 - - - - - - -
26/04:00pm 30.1 NE 7 11 1015.2 - 0.0 - - - - - - -
26/03:30pm 30.4 NE 8 11 1015.3 - 0.0 - - - - - - -
26/03:00pm 31.0 NE 8 12 1015.2 - 0.0 - - - - - - -
26/02:30pm 31.1 ENE 8 11 1015.6 - 0.0 - - - - - - -
26/02:00pm 31.7 ENE 8 11 1015.9 - 0.0 - - - - - - -
26/01:30pm 32.2 ENE 6 10 1016.1 - 0.0 - - - - - - -
26/01:00pm 31.8 NE 8 11 1016.5 - 0.0 - - - - - - -
26/12:30pm 31.6 NE 7 11 1017.0 - 0.0 - - - - - - -
26/12:00pm 31.9 NE 6 10 1017.6 - 0.0 - - - - - - -
26/11:30am 31.6 NE 7 11 1018.0 - 0.0 - - - - - - -
26/11:00am 32.0 NE 7 10 1018.3 - 0.0 - - - - - - -
26/10:30am 32.0 NE 7 12 1018.5 - 0.0 - - - - - - -
26/10:00am 31.4 NE 7 12 1018.6 - 0.0 - - - - - - -
26/09:30am 29.3 NE 6 9 1018.6 - 0.0 - - - - - - -
26/09:00am 28.9 NE 5 8 1018.5 - 0.0 - - - - - - -
26/08:30am 29.0 NE 5 8 1018.2 - 0.0 - - - - - - -
26/08:00am 28.2 NE 5 8 1017.9 - 0.0 - - - - - - -
26/07:30am 26.9 NE 6 8 1017.6 - 0.0 - - - - - - -
26/07:00am 25.6 NE 4 7 1017.3 - 0.0 - - - - - - -
26/06:30am 25.2 NE 3 4 1017.0 - 0.0 - - - - - - -
26/06:00am 24.4 NE 3 5 1016.5 - 0.0 - - - - - - -
26/05:30am 24.2 ENE 3 4 1016.2 - 0.0 - - - - - - -
26/05:00am 24.3 ENE 3 4 1015.9 - 0.0 - - - - - - -
26/04:30am 24.9 N 3 4 1015.7 - 0.0 - - - - - - -
26/04:00am 24.6 NNW 3 3 1015.6 - 0.0 - - - - - - -
26/03:30am 24.8 NNW 3 4 1015.3 - 0.0 - - - - - - -
26/03:00am 24.8 NNW 3 4 1015.3 - 0.0 - - - - - - -
26/02:30am 25.0 N 3 5 1015.4 - 0.0 - - - - - - -
26/02:00am 25.0 NW 3 4 1015.7 - 0.0 - - - - - - -
26/01:30am 25.4 N 4 6 1015.7 - 0.0 - - - - - - -
26/01:00am 25.3 NNW 3 5 1016.0 - 0.0 - - - - - - -
26/12:30am 25.1 NW 3 5 1016.0 - 0.0 - - - - - - -
26/12:00am 25.1 W 3 5 1016.0 - 0.0 - - - - - - -
 
Date/Time
EST
Temp

°C
Wind Pressure Rain
since 9am
mm
Weather Cloud Vis
km
Sea
Height
m
Swell
Dir
 
Speed
knots
Gust
knots
hPa Trend Height
m
Period
s
Dir
25/11:30pm 25.4 NNE 4 7 1015.9 - 0.0 - - - - - - -
25/11:00pm 25.7 N 5 7 1016.0 - 0.0 - - - - - - -
25/10:30pm 25.6 NNE 4 9 1016.1 - 0.0 - - - - - - -
25/10:00pm 25.7 NNE 5 8 1016.3 - 0.0 - - - - - - -
25/09:30pm 25.7 NNE 4 6 1016.4 - 0.0 - - - - - - -
25/09:00pm 25.8 NNE 3 5 1016.4 - 0.0 - - - - - - -
25/08:30pm 26.0 NNE 4 7 1016.2 - 0.0 - - - - - - -
25/08:00pm 26.0 NNE 4 6 1016.0 - 0.0 - - - - - - -
25/07:30pm 26.2 NNE 5 10 1015.5 - 0.0 - - - - - - -
25/07:00pm 26.2 NNE 5 9 1015.0 - 0.0 - - - - - - -
25/06:30pm 26.5 NNE 5 9 1014.7 - 0.0 - - - - - - -
25/06:00pm 26.8 NNE 6 11 1014.4 - 0.0 - - - - - - -
25/05:30pm 27.6 NE 7 10 1014.2 - 0.0 - - - - - - -
25/05:00pm 28.0 NE 7 12 1013.8 - 0.0 - - - - - - -
25/04:30pm 29.0 NE 8 13 1013.7 - 0.0 - - - - - - -
25/04:00pm 29.9 NE 9 14 1013.6 - 0.0 - - - - - - -
25/03:30pm 30.5 NE 9 14 1013.6 - 0.0 - - - - - - -
25/03:00pm 31.6 NE 7 13 1013.7 - 0.0 - - - - - - -
25/02:30pm 31.1 NE 9 13 1013.8 - 0.0 - - - - - - -
25/02:00pm 31.4 NE 9 14 1014.1 - 0.0 - - - - - - -
25/01:30pm 31.5 NE 9 16 1014.4 - 0.0 - - - - - - -
25/01:00pm 31.8 NE 10 15 1014.6 - 0.0 - - - - - - -
25/12:30pm 32.3 NE 8 14 1014.9 - 0.0 - - - - - - -
25/12:00pm 32.9 NE 7 12 1015.3 - 0.0 - - - - - - -
25/11:30am 32.0 NE 8 12 1015.8 - 0.0 - - - - - - -
25/11:00am 32.6 NE 7 11 1016.4 - 0.0 - - - - - - -
25/10:30am 32.0 NE 7 10 1016.5 - 0.0 - - - - - - -
25/10:00am 31.2 NE 5 8 1016.6 - 0.0 - - - - - - -
25/09:30am 29.8 N 2 5 1016.5 - 0.0 - - - - - - -
25/09:00am 28.7 NE 2 5 1016.7 - 0.0 - - - - - - -
25/08:30am 27.5 NNE 4 7 1016.6 - 0.0 - - - - - - -
25/08:00am 26.6 NE 1 4 1016.5 - 0.0 - - - - - - -
25/07:30am 25.0 CALM 0 0 1016.1 - 0.0 - - - - - - -
25/07:00am 23.9 W 3 4 1015.6 - 0.0 - - - - - - -
25/06:30am 23.4 W 4 6 1015.2 - 0.0 - - - - - - -
25/06:00am 23.4 W 4 5 1014.8 - 0.0 - - - - - - -
25/05:30am 23.6 WNW 4 5 1014.4 - 0.0 - - - - - - -
25/05:00am 23.8 WNW 4 6 1014.3 - 0.0 - - - - - - -
25/04:30am 23.9 NW 4 5 1013.9 - 0.0 - - - - - - -
25/04:00am 23.6 NW 4 6 1013.6 - 0.0 - - - - - - -
25/03:30am 24.0 NNW 5 7 1013.4 - 0.0 - - - - - - -
25/03:00am 24.1 NNW 4 6 1013.6 - 0.0 - - - - - - -
25/02:30am 24.4 NNW 4 6 1013.8 - 0.0 - - - - - - -
25/02:00am 24.5 NNW 5 6 1013.9 - 0.0 - - - - - - -
25/01:30am 24.4 NNE 4 6 1014.1 - 0.0 - - - - - - -
25/01:00am 24.3 NNE 3 7 1014.4 - 0.0 - - - - - - -
25/12:30am 24.7 NNE 3 5 1014.6 - 0.0 - - - - - - -
25/12:00am 25.3 NNW 5 7 1014.8 - 0.0 - - - - - - -
 
Date/Time
EST
Temp

°C
Wind Pressure Rain
since 9am
mm
Weather Cloud Vis
km
Sea
Height
m
Swell
Dir
 
Speed
knots
Gust
knots
hPa Trend Height
m
Period
s
Dir
24/11:30pm 25.3 NNW 4 6 1015.1 - 0.0 - - - - - - -
24/11:00pm 25.2 NNW 4 6 1015.3 - 0.0 - - - - - - -
24/10:30pm 25.1 N 4 5 1015.4 - 0.0 - - - - - - -
24/10:00pm 25.1 N 3 5 1015.4 - 0.0 - - - - - - -
24/09:30pm 25.3 N 5 7 1015.4 - 0.0 - - - - - - -
24/09:00pm 25.3 NNE 4 8 1015.5 - 0.0 - - - - - - -
24/08:30pm 25.4 NNE 5 8 1015.3 - 0.0 - - - - - - -
24/08:00pm 25.3 NE 5 9 1014.9 - 0.0 - - - - - - -
24/07:30pm 25.4 NNE 6 8 1014.6 - 0.0 - - - - - - -
24/07:00pm 25.5 NE 5 8 1014.3 - 0.0 - - - - - - -
24/06:30pm 25.7 NE 6 9 1014.1 - 0.0 - - - - - - -
24/06:00pm 26.1 NE 6 10 1013.8 - 0.0 - - - - - - -
24/05:30pm 26.6 NE 7 12 1013.6 - 0.0 - - - - - - -
24/05:00pm 27.2 NE 7 11 1013.3 - 0.0 - - - - - - -
24/04:30pm 28.3 NE 7 12 1013.2 - 0.0 - - - - - - -
24/04:00pm 29.4 NE 7 12 1013.1 - 0.0 - - - - - - -
24/03:30pm 29.7 NE 8 12 1013.1 - 0.0 - - - - - - -
24/03:00pm 30.6 NE 7 11 1013.1 - 0.0 - - - - - - -
24/02:30pm 30.4 NE 9 14 1013.3 - 0.0 - - - - - - -
24/02:00pm 31.2 NE 9 13 1013.7 - 0.0 - - - - - - -
24/01:30pm 31.3 NE 8 12 1014.0 - 0.0 - - - - - - -
24/01:00pm 31.1 NE 8 13 1014.3 - 0.0 - - - - - - -
24/12:30pm 31.4 NE 7 12 1014.7 - 0.0 - - - - - - -

Other Formats:

Comma delimited format used in spreadsheet applications
http://www.bom.gov.au/fwo/IDQ60701/IDQ60701.94380.axf

JavaScript Object Notation format (JSON) in row-major order
http://www.bom.gov.au/fwo/IDQ60701/IDQ60701.94380.json